Time;durP1;ratioP1;P1;durP2;ratioP2;P2;SDS_P1;SDS_P2;PMS_P1;PMS_P2;Temp;Humidity;BMP_temperature;BMP_pressure;BME280_temperature;BME280_humidity;BME280_pressure;Samples;Min_cycle;Max_cycle;Signal;HPM_P1;HPM_P2
2021/06/05 00:00:36;;;;;;;8.00;6.05;;;;;;;16.06;73.36;101288.56;5035506;28;20158;-70
2021/06/05 00:03:04;;;;;;;7.10;6.05;;;;;;;16.04;73.70;101287.00;5054856;28;20053;-71
2021/06/05 00:05:44;;;;;;;10.27;6.68;;;;;;;16.03;73.74;101291.47;5031884;28;20061;-71
2021/06/05 00:08:13;;;;;;;8.90;6.25;;;;;;;15.95;74.12;101289.34;5032015;28;20094;-71
2021/06/05 00:10:43;;;;;;;10.70;6.25;;;;;;;15.86;74.15;101292.63;5022189;28;20055;-71
2021/06/05 00:13:15;;;;;;;10.35;6.47;;;;;;;16.00;73.69;101293.47;5019125;28;20075;-71
2021/06/05 00:15:44;;;;;;;6.70;5.80;;;;;;;15.88;74.13;101298.69;5005156;28;20056;-70
2021/06/05 00:18:12;;;;;;;10.10;6.82;;;;;;;15.76;74.83;101296.03;5009677;28;20076;-71
2021/06/05 00:20:40;;;;;;;8.80;7.18;;;;;;;15.87;74.44;101294.34;5055890;28;20118;-70
2021/06/05 00:23:10;;;;;;;10.13;6.35;;;;;;;15.86;74.21;101292.63;5052470;28;20048;-70
2021/06/05 00:25:38;;;;;;;8.68;6.35;;;;;;;15.91;74.19;101294.97;5036164;28;20052;-71
2021/06/05 00:28:05;;;;;;;9.20;6.30;;;;;;;15.89;74.13;101295.06;5041661;28;20595;-71
2021/06/05 00:30:33;;;;;;;9.77;6.28;;;;;;;15.84;74.27;101286.56;5046343;28;20053;-70
2021/06/05 00:33:00;;;;;;;11.00;6.38;;;;;;;15.76;74.63;101280.97;5030809;28;20127;-69
2021/06/05 00:35:30;;;;;;;16.58;6.50;;;;;;;15.80;74.39;101285.09;5053749;28;20127;-71
2021/06/05 00:37:57;;;;;;;9.10;6.53;;;;;;;15.76;74.64;101286.28;5059916;28;20063;-71
2021/06/05 00:40:27;;;;;;;9.35;6.43;;;;;;;15.75;74.80;101281.06;5023631;28;20041;-71
2021/06/05 00:42:56;;;;;;;7.35;6.35;;;;;;;15.77;74.36;101292.44;5037927;28;20105;-71
2021/06/05 00:45:27;;;;;;;8.30;5.93;;;;;;;15.80;73.99;101293.06;5057738;28;20149;-70
2021/06/05 00:47:55;;;;;;;7.60;6.57;;;;;;;15.60;75.09;101298.88;5062506;22;20117;-71
2021/06/05 00:50:23;;;;;;;8.13;6.10;;;;;;;15.60;75.01;101298.88;5067544;28;20041;-69
2021/06/05 00:52:51;;;;;;;8.05;7.25;;;;;;;15.47;75.67;101295.38;5073187;28;20475;-70
2021/06/05 00:55:20;;;;;;;10.52;6.35;;;;;;;15.51;75.38;101291.56;5061248;28;20144;-70
2021/06/05 00:57:47;;;;;;;11.25;6.97;;;;;;;15.47;75.61;101287.41;5071203;28;20039;-69
2021/06/05 01:00:38;;;;;;;9.75;6.70;;;;;;;15.57;74.99;101284.00;5062947;28;20056;-70
2021/06/05 01:03:06;;;;;;;11.07;7.82;;;;;;;15.51;75.30;101286.25;5071802;28;20067;-69
2021/06/05 01:05:35;;;;;;;8.73;6.88;;;;;;;15.55;75.21;101285.94;5050208;28;20530;-70
2021/06/05 01:08:20;;;;;;;7.72;6.50;;;;;;;15.34;76.04;101285.59;5058463;28;20056;-69
2021/06/05 01:10:51;;;;;;;10.85;7.15;;;;;;;15.18;76.93;101291.13;5069144;28;20070;-69
2021/06/05 01:13:30;;;;;;;11.88;7.38;;;;;;;15.29;76.47;101282.41;5062078;28;20140;-70
2021/06/05 01:15:59;;;;;;;10.05;7.20;;;;;;;15.34;76.06;101282.09;5072742;28;20160;-71
2021/06/05 01:18:41;;;;;;;8.50;6.53;;;;;;;15.18;76.77;101275.19;5063684;28;20044;-69
2021/06/05 01:21:26;;;;;;;10.10;6.70;;;;;;;15.10;77.34;101285.47;5070064;28;20105;-69
2021/06/05 01:24:19;;;;;;;8.13;6.35;;;;;;;15.28;76.64;101291.34;5061224;28;20066;-70
2021/06/05 01:26:52;;;;;;;8.45;6.95;;;;;;;15.22;76.91;101285.56;5056610;28;20049;-70
2021/06/05 01:29:23;;;;;;;10.27;6.55;;;;;;;15.08;77.60;101287.34;5063781;28;20167;-70
2021/06/05 01:31:53;;;;;;;7.22;6.22;;;;;;;14.97;78.05;101284.59;5066073;28;20175;-69
2021/06/05 01:34:21;;;;;;;10.18;6.55;;;;;;;14.90;78.15;101273.56;5071709;28;20368;-71
2021/06/05 01:36:51;;;;;;;10.85;6.93;;;;;;;14.85;78.60;101283.59;5088789;28;20051;-70
2021/06/05 01:39:24;;;;;;;9.23;7.22;;;;;;;14.90;78.54;101273.56;5095231;28;20054;-71
2021/06/05 01:41:52;;;;;;;12.27;7.60;;;;;;;14.81;78.71;101271.50;5086957;28;20048;-70
2021/06/05 01:44:20;;;;;;;10.60;8.27;;;;;;;14.80;78.98;101280.41;5071293;28;20537;-70
2021/06/05 01:46:49;;;;;;;13.68;7.63;;;;;;;14.82;78.89;101275.03;5081335;28;20136;-71
2021/06/05 01:49:18;;;;;;;10.55;7.70;;;;;;;14.86;78.30;101280.00;5053917;28;20051;-69
2021/06/05 01:51:52;;;;;;;10.32;6.85;;;;;;;14.86;78.92;101277.38;5075858;28;20062;-69
2021/06/05 01:54:23;;;;;;;10.55;7.93;;;;;;;14.83;78.68;101277.56;5076615;28;20070;-69
2021/06/05 01:56:56;;;;;;;8.95;6.95;;;;;;;14.84;78.79;101273.09;5064537;28;20539;-70
2021/06/05 01:59:24;;;;;;;8.00;7.20;;;;;;;14.81;79.28;101271.50;5075769;28;20077;-70
2021/06/05 02:01:51;;;;;;;9.38;7.43;;;;;;;14.71;79.50;101278.38;5070170;28;20569;-70
2021/06/05 02:04:19;;;;;;;9.02;7.65;;;;;;;14.59;79.75;101272.09;5093672;28;20399;-70
2021/06/05 02:06:47;;;;;;;9.98;7.32;;;;;;;14.74;79.33;101264.91;5083184;28;20543;-71
2021/06/05 02:09:17;;;;;;;9.13;7.25;;;;;;;14.68;79.26;101265.34;5077484;28;20486;-69
2021/06/05 02:11:50;;;;;;;11.43;7.85;;;;;;;14.78;78.98;101268.22;5085637;28;20134;-70
2021/06/05 02:14:31;;;;;;;8.88;7.03;;;;;;;14.77;78.87;101264.72;5049392;28;20135;-70
2021/06/05 02:16:59;;;;;;;11.27;7.22;;;;;;;14.72;79.21;101265.97;5064755;28;20101;-70
2021/06/05 02:19:30;;;;;;;10.98;7.78;;;;;;;14.84;78.34;101263.34;5044152;28;20119;-70
2021/06/05 02:22:01;;;;;;;8.75;7.00;;;;;;;14.72;78.98;101258.00;5083802;28;20044;-69
2021/06/05 02:24:31;;;;;;;11.27;7.30;;;;;;;14.97;77.87;101249.28;5069461;28;20510;-71
2021/06/05 02:26:59;;;;;;;9.38;6.35;;;;;;;15.07;77.02;101248.53;5086438;28;20672;-68
2021/06/05 02:29:29;;;;;;;7.75;6.47;;;;;;;15.07;76.97;101243.25;5088696;28;20054;-70
2021/06/05 02:31:56;;;;;;;11.98;6.85;;;;;;;15.19;76.32;101247.72;5087137;28;20131;-70
2021/06/05 02:34:26;;;;;;;11.30;6.90;;;;;;;15.16;76.19;101237.31;5083690;28;20607;-69
2021/06/05 02:36:57;;;;;;;9.77;7.03;;;;;;;15.22;75.74;101238.72;5089068;28;20147;-70
2021/06/05 02:39:24;;;;;;;8.80;6.55;;;;;;;15.09;76.47;101238.69;5083318;28;20082;-70
2021/06/05 02:41:52;;;;;;;11.10;6.50;;;;;;;15.18;75.78;101235.41;5089968;28;20586;-68
2021/06/05 02:44:23;;;;;;;8.48;6.97;;;;;;;15.08;76.40;101244.94;5086836;28;20052;-69
2021/06/05 02:46:51;;;;;;;8.30;6.45;;;;;;;15.29;75.14;101245.28;5086340;28;20519;-69
2021/06/05 02:49:18;;;;;;;11.52;7.85;;;;;;;15.35;74.83;101251.97;5048301;28;20623;-71
2021/06/05 02:51:52;;;;;;;9.57;6.93;;;;;;;15.12;75.73;101249.06;5073662;28;20156;-69
2021/06/05 02:54:21;;;;;;;8.45;6.03;;;;;;;14.98;76.81;101248.31;5073096;28;20047;-70
2021/06/05 02:56:49;;;;;;;9.85;6.95;;;;;;;14.85;77.55;101242.97;5092689;28;20456;-70
2021/06/05 02:59:16;;;;;;;10.05;6.63;;;;;;;14.76;78.47;101240.94;5066981;28;20131;-70
2021/06/05 03:01:43;;;;;;;12.65;6.88;;;;;;;14.68;78.43;101250.28;5087076;28;20473;-69
2021/06/05 03:04:11;;;;;;;13.10;7.72;;;;;;;14.82;77.72;101245.88;5090800;28;20067;-69
2021/06/05 03:06:38;;;;;;;7.75;6.95;;;;;;;14.78;77.93;101239.06;5078916;28;20205;-69
2021/06/05 03:09:06;;;;;;;11.80;7.43;;;;;;;14.87;77.37;101244.59;5076020;28;20112;-69
2021/06/05 03:11:33;;;;;;;10.95;7.22;;;;;;;15.01;76.65;101248.13;5089548;28;20079;-69
2021/06/05 03:14:02;;;;;;;11.85;6.88;;;;;;;15.05;76.46;101247.81;5083869;28;20061;-69
2021/06/05 03:16:29;;;;;;;9.52;7.10;;;;;;;15.10;76.50;101250.16;5091473;28;20085;-68
2021/06/05 03:18:56;;;;;;;11.57;7.70;;;;;;;15.06;76.32;101246.00;5090271;28;20377;-69
2021/06/05 03:21:24;;;;;;;10.15;7.45;;;;;;;15.11;76.25;101252.69;5090888;28;20139;-69
2021/06/05 03:23:51;;;;;;;14.85;7.18;;;;;;;14.97;76.90;101247.47;5070175;28;20043;-69
2021/06/05 03:26:20;;;;;;;9.38;6.45;;;;;;;14.92;77.27;101246.94;5098105;28;20050;-69
2021/06/05 03:28:47;;;;;;;7.45;6.45;;;;;;;15.04;76.76;101253.19;5090947;28;20044;-70
2021/06/05 03:31:19;;;;;;;10.80;7.03;;;;;;;15.02;76.71;101260.41;5086677;28;20082;-69
2021/06/05 03:33:47;;;;;;;8.75;6.55;;;;;;;15.09;76.59;101254.59;5078636;28;20819;-68
2021/06/05 03:36:15;;;;;;;11.13;7.15;;;;;;;15.24;75.70;101250.06;5088368;28;20429;-69
2021/06/05 03:38:44;;;;;;;7.45;6.70;;;;;;;15.08;76.64;101242.28;5095049;28;20062;-69
2021/06/05 03:41:13;;;;;;;9.15;6.60;;;;;;;15.32;75.22;101252.19;5097056;28;20492;-69
2021/06/05 03:43:40;;;;;;;11.98;7.50;;;;;;;15.44;74.66;101244.22;5089819;28;20089;-70
2021/06/05 03:46:09;;;;;;;8.48;6.72;;;;;;;15.46;74.36;101246.78;5094484;28;20131;-69
2021/06/05 03:48:37;;;;;;;12.55;6.22;;;;;;;15.39;74.92;101242.84;5080457;28;20503;-69
2021/06/05 03:51:05;;;;;;;12.27;7.28;;;;;;;15.47;74.77;101248.47;5086093;28;20056;-69
2021/06/05 03:53:32;;;;;;;9.73;6.70;;;;;;;15.56;74.13;101241.66;5078557;28;20062;-68
2021/06/05 03:55:59;;;;;;;8.07;6.30;;;;;;;15.76;73.12;101235.84;5094028;28;20520;-69
2021/06/05 03:58:37;;;;;;;9.45;6.85;;;;;;;15.80;73.19;101234.66;5078592;28;20050;-70
2021/06/05 04:01:12;;;;;;;7.90;6.40;;;;;;;15.93;72.55;101231.97;5086889;28;20044;-68
2021/06/05 04:03:39;;;;;;;;;;;;;;;16.17;71.24;101235.53;5089780;28;20048;-69
2021/06/05 04:06:07;;;;;;;9.15;5.95;;;;;;;16.25;70.53;101242.06;5082106;28;20018;-69
2021/06/05 04:08:34;;;;;;;7.68;6.50;;;;;;;16.44;69.50;101242.44;5077259;28;20559;-70
2021/06/05 04:11:03;;;;;;;8.98;6.15;;;;;;;16.58;68.61;101236.94;5088244;28;20467;-69
2021/06/05 04:13:31;;;;;;;9.77;5.78;;;;;;;16.67;68.40;101244.22;5058052;28;20151;-68
2021/06/05 04:15:58;;;;;;;7.57;5.80;;;;;;;16.87;67.34;101237.44;5083519;28;20543;-68
2021/06/05 04:18:31;;;;;;;10.93;6.47;;;;;;;17.15;66.10;101240.66;5051871;28;20052;-70
2021/06/05 04:20:59;;;;;;;11.13;6.57;;;;;;;17.10;66.65;101237.50;5070321;28;20059;-70
2021/06/05 04:23:27;;;;;;;8.82;5.60;;;;;;;17.39;66.26;101248.56;5053943;28;20548;-69
2021/06/05 04:25:55;;;;;;;9.30;5.05;;;;;;;17.86;64.32;101242.19;5071019;28;20769;-70
2021/06/05 04:28:23;;;;;;;7.32;4.95;;;;;;;19.01;59.82;101243.44;5063959;28;20439;-68
2021/06/05 04:30:51;;;;;;;6.28;4.97;;;;;;;20.86;54.36;101251.13;5066572;28;20649;-69
2021/06/05 04:33:21;;;;;;;8.10;5.55;;;;;;;22.42;49.45;101228.13;5079555;28;20715;-69
2021/06/05 04:35:48;;;;;;;7.35;4.90;;;;;;;23.69;46.44;101236.69;5068992;28;20122;-70
2021/06/05 04:38:16;;;;;;;7.60;4.63;;;;;;;24.60;43.04;101232.41;5079582;28;20048;-70
2021/06/05 04:40:43;;;;;;;8.10;5.05;;;;;;;25.20;42.12;101232.91;5077797;28;20318;-68
2021/06/05 04:43:11;;;;;;;5.07;4.43;;;;;;;26.00;40.04;101237.41;5068945;28;20050;-69
2021/06/05 04:45:38;;;;;;;10.18;4.43;;;;;;;26.44;38.84;101234.97;5081830;28;20044;-69
2021/06/05 04:48:06;;;;;;;7.25;4.43;;;;;;;26.61;37.15;101238.38;5086208;28;20413;-68
2021/06/05 04:50:35;;;;;;;7.60;4.65;;;;;;;26.76;37.21;101233.88;5080511;28;20052;-68
2021/06/05 04:53:03;;;;;;;6.20;4.60;;;;;;;26.63;37.03;101241.75;5071903;28;20067;-69
2021/06/05 04:55:31;;;;;;;5.00;4.50;;;;;;;27.50;35.95;101238.59;5079164;28;20151;-69
2021/06/05 04:57:59;;;;;;;7.18;4.78;;;;;;;26.99;36.53;101235.72;5049085;28;20055;-68
2021/06/05 05:00:41;;;;;;;5.00;4.50;;;;;;;28.52;33.68;101238.63;5069313;28;20139;-69
2021/06/05 05:03:11;;;;;;;11.43;4.80;;;;;;;28.93;33.00;101243.38;5087469;28;20167;-69
2021/06/05 05:05:38;;;;;;;5.68;4.03;;;;;;;28.22;33.87;101243.28;5064853;28;20052;-69
2021/06/05 05:08:07;;;;;;;5.10;3.95;;;;;;;28.03;33.68;101239.31;5088889;28;20134;-69
2021/06/05 05:10:37;;;;;;;5.05;3.83;;;;;;;27.77;34.67;101232.53;5080609;28;20215;-68
2021/06/05 05:13:05;;;;;;;4.57;4.10;;;;;;;29.24;32.11;101238.44;5075011;28;20534;-68
2021/06/05 05:15:32;;;;;;;6.57;3.72;;;;;;;30.23;30.58;101246.28;5093611;28;20153;-67
2021/06/05 05:17:59;;;;;;;4.72;3.75;;;;;;;30.47;29.67;101239.44;5077407;28;20056;-68
2021/06/05 05:20:31;;;;;;;7.35;3.97;;;;;;;30.47;29.97;101244.88;5075258;28;20337;-69
2021/06/05 05:22:58;;;;;;;7.78;3.90;;;;;;;30.86;28.81;101226.97;5095341;28;20068;-69
2021/06/05 05:25:26;;;;;;;3.92;3.40;;;;;;;30.73;28.94;101229.66;5078339;28;20492;-69
2021/06/05 05:27:53;;;;;;;4.60;4.10;;;;;;;30.76;28.89;101235.53;5082318;28;20522;-69
2021/06/05 05:30:24;;;;;;;6.15;3.60;;;;;;;31.16;28.82;101237.38;5067918;28;20123;-68
2021/06/05 05:32:52;;;;;;;6.47;4.45;;;;;;;30.65;28.92;101246.16;5053883;28;20645;-70
2021/06/05 05:35:19;;;;;;;5.55;3.83;;;;;;;31.68;27.80;101236.44;5086481;28;20044;-69
2021/06/05 05:37:47;;;;;;;6.40;3.88;;;;;;;31.07;28.44;101244.91;5061721;28;20139;-69
2021/06/05 05:40:18;;;;;;;5.60;4.05;;;;;;;31.60;27.76;101239.41;5067659;28;20134;-69
2021/06/05 05:42:45;;;;;;;5.28;3.70;;;;;;;32.00;27.01;101240.13;5059884;28;20094;-70
2021/06/05 05:45:12;;;;;;;4.85;4.03;;;;;;;31.85;27.36;101245.00;5079168;28;20441;-69
2021/06/05 05:47:40;;;;;;;5.00;3.45;;;;;;;32.23;26.46;101249.63;5075274;28;20075;-69
2021/06/05 05:50:09;;;;;;;4.82;3.80;;;;;;;32.26;26.65;101247.31;5067905;28;20039;-69
2021/06/05 05:52:37;;;;;;;5.07;3.70;;;;;;;32.89;25.66;101251.94;5077605;28;20048;-69
2021/06/05 05:55:05;;;;;;;5.35;4.50;;;;;;;31.67;27.56;101256.56;5061223;28;20048;-69
2021/06/05 05:57:33;;;;;;;4.93;3.58;;;;;;;33.67;24.11;101261.50;5071439;28;20056;-69
2021/06/05 06:00:00;;;;;;;3.63;3.20;;;;;;;33.53;24.79;101262.72;5080324;28;20100;-69
2021/06/05 06:02:28;;;;;;;4.47;3.63;;;;;;;33.64;24.51;101253.75;5075272;28;20066;-68
2021/06/05 06:04:56;;;;;;;9.20;3.85;;;;;;;33.66;24.85;101257.13;5080931;28;20096;-69
2021/06/05 06:07:23;;;;;;;10.40;3.65;;;;;;;33.33;25.17;101252.81;5078438;28;20064;-70
2021/06/05 06:09:50;;;;;;;4.05;3.00;;;;;;;34.10;23.75;101261.44;5085717;28;20050;-70
2021/06/05 06:12:18;;;;;;;4.45;3.92;;;;;;;34.56;23.31;101261.84;5083743;28;20105;-69
2021/06/05 06:14:45;;;;;;;4.88;3.05;;;;;;;33.97;23.40;101264.34;5091902;28;20135;-70
2021/06/05 06:17:12;;;;;;;6.93;3.60;;;;;;;34.55;23.16;101261.03;5066677;28;20583;-69
2021/06/05 06:19:39;;;;;;;7.13;3.90;;;;;;;33.79;24.29;101264.31;5057621;28;20127;-69
2021/06/05 06:22:07;;;;;;;5.90;4.03;;;;;;;34.09;24.16;101267.97;5078673;28;20474;-69
2021/06/05 06:24:34;;;;;;;6.30;3.90;;;;;;;33.95;23.36;101261.84;5060925;28;20083;-68
2021/06/05 06:27:01;;;;;;;4.95;3.47;;;;;;;33.73;24.58;101255.97;5068202;28;20054;-68
2021/06/05 06:29:33;;;;;;;5.40;4.03;;;;;;;33.93;23.82;101250.25;5082778;28;20044;-68
2021/06/05 06:32:01;;;;;;;4.82;4.07;;;;;;;33.79;24.55;101256.97;5090874;28;20111;-70
2021/06/05 06:34:29;;;;;;;4.75;3.53;;;;;;;33.75;24.57;101258.47;5086300;28;20048;-70
2021/06/05 06:37:03;;;;;;;4.47;4.07;;;;;;;33.36;25.14;101255.09;5086158;28;20040;-68
2021/06/05 06:39:30;;;;;;;4.88;3.88;;;;;;;34.21;23.86;101263.34;5068711;28;20093;-70
2021/06/05 06:41:59;;;;;;;8.20;3.60;;;;;;;35.37;22.56;101254.81;5059121;28;20136;-69
2021/06/05 06:44:27;;;;;;;4.15;3.72;;;;;;;34.81;23.58;101257.03;5075634;28;20062;-69
2021/06/05 06:46:54;;;;;;;6.00;3.78;;;;;;;35.39;22.67;101261.69;5072455;28;20044;-70
2021/06/05 06:49:22;;;;;;;3.95;3.63;;;;;;;35.14;23.18;101270.16;5081344;28;20097;-70
2021/06/05 06:51:50;;;;;;;4.10;3.65;;;;;;;35.14;22.65;101267.44;5066544;28;20134;-69
2021/06/05 06:54:17;;;;;;;9.20;3.78;;;;;;;34.30;23.74;101266.59;5063104;28;20087;-69
2021/06/05 06:56:45;;;;;;;8.27;4.60;;;;;;;34.17;24.17;101264.06;5066934;28;20049;-70
2021/06/05 06:59:12;;;;;;;4.70;3.40;;;;;;;35.15;22.78;101258.16;5085205;28;20058;-69
2021/06/05 07:01:39;;;;;;;6.60;4.30;;;;;;;35.48;22.43;101259.44;5061627;28;20451;-70
2021/06/05 07:04:06;;;;;;;5.15;4.00;;;;;;;35.92;21.74;101257.09;5071210;28;20101;-70
2021/06/05 07:06:34;;;;;;;7.00;3.80;;;;;;;35.60;21.66;101265.75;5068545;28;20037;-70
2021/06/05 07:09:02;;;;;;;8.57;3.75;;;;;;;33.90;23.44;101258.06;5067608;28;20056;-69
2021/06/05 07:11:32;;;;;;;4.03;3.63;;;;;;;33.82;23.51;101259.25;5078268;28;20044;-69
2021/06/05 07:14:01;;;;;;;3.70;3.38;;;;;;;33.65;23.46;101255.44;5078324;28;20059;-69
2021/06/05 07:16:29;;;;;;;5.88;3.45;;;;;;;33.98;23.46;101261.34;5086929;28;20041;-70
2021/06/05 07:18:57;;;;;;;6.47;3.88;;;;;;;35.12;22.06;101253.13;5087803;28;20052;-68
2021/06/05 07:21:24;;;;;;;5.93;3.53;;;;;;;36.15;20.86;101248.81;5090072;28;20109;-69
2021/06/05 07:23:51;;;;;;;3.72;2.88;;;;;;;35.11;21.96;101256.94;5064418;28;20044;-69
2021/06/05 07:26:25;;;;;;;4.10;3.35;;;;;;;35.92;21.13;101255.19;5071810;28;20062;-70
2021/06/05 07:28:55;;;;;;;6.95;2.90;;;;;;;35.58;21.38;101250.66;5067907;28;20064;-69
2021/06/05 07:31:29;;;;;;;6.82;3.17;;;;;;;35.92;20.60;101252.44;5089271;28;20097;-68
2021/06/05 07:33:56;;;;;;;;;;;;;;;35.25;21.34;101257.53;5080015;28;20060;-68
2021/06/05 07:36:28;;;;;;;4.25;2.95;;;;;;;35.09;21.27;101259.09;5069880;28;19924;-68
2021/06/05 07:38:55;;;;;;;2.60;2.40;;;;;;;34.84;22.10;101255.72;5072080;28;20095;-68
2021/06/05 07:41:22;;;;;;;2.70;2.50;;;;;;;34.93;21.46;101263.34;5088316;28;20062;-71
2021/06/05 07:43:50;;;;;;;4.53;3.00;;;;;;;35.43;21.16;101257.41;5087885;28;20543;-68
2021/06/05 07:46:17;;;;;;;3.60;2.70;;;;;;;35.39;21.23;101248.00;5060387;28;20298;-69
2021/06/05 07:48:44;;;;;;;3.25;2.88;;;;;;;35.39;20.95;101256.22;5089710;28;20480;-69
2021/06/05 07:51:12;;;;;;;3.03;2.58;;;;;;;35.46;21.28;101262.44;5089617;28;20086;-69
2021/06/05 07:53:39;;;;;;;3.10;2.80;;;;;;;35.50;21.01;101257.31;5081172;28;20540;-68
2021/06/05 07:56:06;;;;;;;3.00;2.70;;;;;;;33.87;22.75;101251.19;5070514;28;20079;-70
2021/06/05 07:58:33;;;;;;;3.70;2.38;;;;;;;34.76;21.98;101249.53;5063915;28;20067;-69
2021/06/05 08:01:01;;;;;;;3.03;2.83;;;;;;;35.18;21.35;101257.69;5084532;28;20105;-69
2021/06/05 08:03:28;;;;;;;3.42;2.90;;;;;;;34.85;21.78;101249.16;5084406;28;20052;-70
2021/06/05 08:05:56;;;;;;;4.82;3.08;;;;;;;35.52;20.97;101249.69;5084225;28;20048;-70
2021/06/05 08:08:23;;;;;;;3.67;2.53;;;;;;;34.58;21.92;101238.66;5078824;28;20028;-70
2021/06/05 08:10:50;;;;;;;3.58;3.00;;;;;;;34.50;21.71;101239.03;5084769;28;20123;-69
2021/06/05 08:13:18;;;;;;;5.85;2.90;;;;;;;34.72;21.55;101242.00;5090481;28;20071;-70
2021/06/05 08:15:48;;;;;;;4.82;2.65;;;;;;;34.50;21.69;101244.50;5081194;28;20040;-69
2021/06/05 08:18:15;;;;;;;2.90;2.60;;;;;;;33.63;22.72;101246.63;5072214;28;20125;-70
2021/06/05 08:20:46;;;;;;;5.57;3.63;;;;;;;33.21;23.01;101239.06;5063266;28;20428;-69
2021/06/05 08:23:14;;;;;;;3.95;2.78;;;;;;;34.41;21.73;101241.22;5085365;28;20456;-70
2021/06/05 08:25:41;;;;;;;5.25;2.53;;;;;;;34.34;21.63;101237.75;5075279;28;20079;-70
2021/06/05 08:28:09;;;;;;;4.32;3.00;;;;;;;32.91;23.58;101229.91;5068559;28;20064;-71
2021/06/05 08:30:39;;;;;;;3.33;2.80;;;;;;;30.82;25.84;101233.84;5058701;28;20622;-71
2021/06/05 08:33:07;;;;;;;5.25;3.15;;;;;;;30.04;27.09;101235.34;5079277;28;20048;-69
2021/06/05 08:35:35;;;;;;;3.42;2.85;;;;;;;29.54;27.80;101235.50;5079460;28;20152;-69
2021/06/05 08:38:03;;;;;;;4.45;2.35;;;;;;;29.14;29.10;101227.13;5061066;28;20131;-70
2021/06/05 08:41:03;;;;;;;4.60;3.03;;;;;;;28.42;30.34;101224.59;5077545;28;20107;-70
2021/06/05 08:43:35;;;;;;;4.50;2.47;;;;;;;28.24;30.62;101220.41;5069086;28;20211;-70
2021/06/05 08:46:05;;;;;;;5.70;2.88;;;;;;;27.12;32.52;101227.00;5087520;28;20073;-69
2021/06/05 08:48:32;;;;;;;4.35;2.80;;;;;;;26.90;32.31;101228.69;5065539;28;20048;-71
2021/06/05 08:51:17;;;;;;;5.63;3.35;;;;;;;27.14;32.50;101223.09;5084182;28;20334;-69
2021/06/05 08:53:44;;;;;;;4.87;2.97;;;;;;;27.25;32.30;101222.66;5049263;28;20124;-70
2021/06/05 08:56:15;;;;;;;5.38;3.05;;;;;;;26.80;33.30;101218.16;5078668;28;20558;-68
2021/06/05 08:58:46;;;;;;;6.50;2.70;;;;;;;26.91;34.12;101220.41;5094851;28;20155;-68
2021/06/05 09:01:27;;;;;;;7.03;3.58;;;;;;;27.09;33.71;101221.97;5070892;28;20052;-69
2021/06/05 09:04:00;;;;;;;6.32;3.20;;;;;;;26.67;34.34;101217.94;5064373;28;20123;-69
2021/06/05 09:06:34;;;;;;;6.13;3.10;;;;;;;26.41;34.35;101238.00;5088493;28;20113;-70
2021/06/05 09:09:04;;;;;;;6.03;3.40;;;;;;;26.26;35.16;101227.13;5069606;28;20131;-69
2021/06/05 09:11:32;;;;;;;5.95;2.75;;;;;;;26.12;35.26;101222.50;5087122;28;20081;-69
2021/06/05 09:14:00;;;;;;;4.43;3.03;;;;;;;26.23;35.25;101226.63;5087308;28;20083;-68
2021/06/05 09:16:39;;;;;;;4.30;2.75;;;;;;;26.50;35.41;101225.31;5088812;28;20044;-70
2021/06/05 09:19:07;;;;;;;5.85;3.05;;;;;;;26.66;33.81;101227.91;5068965;28;20044;-72
2021/06/05 09:21:34;;;;;;;5.10;2.78;;;;;;;26.62;34.23;101237.38;5077085;28;20044;-69
2021/06/05 09:24:27;;;;;;;4.38;3.53;;;;;;;26.62;34.44;101234.69;5068070;28;20044;-69
2021/06/05 09:27:14;;;;;;;5.53;3.13;;;;;;;25.87;35.65;101229.03;5082914;28;20081;-69
2021/06/05 09:30:01;;;;;;;5.95;3.33;;;;;;;26.71;34.46;101230.06;5085874;28;20600;-69
2021/06/05 09:32:30;;;;;;;3.58;3.20;;;;;;;26.84;33.95;101218.59;5076226;28;20040;-69
2021/06/05 09:35:08;;;;;;;4.68;3.30;;;;;;;26.70;34.30;101225.66;5061863;28;20062;-69
2021/06/05 09:37:39;;;;;;;4.75;3.00;;;;;;;26.99;34.44;101214.09;5075599;28;20131;-70
2021/06/05 09:40:23;;;;;;;5.30;3.55;;;;;;;26.74;33.82;101217.00;5066111;28;20071;-70
2021/06/05 09:43:07;;;;;;;6.57;3.40;;;;;;;26.89;34.16;101224.31;5052616;28;20553;-69
2021/06/05 09:45:41;;;;;;;3.95;3.25;;;;;;;26.76;33.68;101225.78;5072969;28;20460;-69
2021/06/05 09:48:28;;;;;;;5.45;3.33;;;;;;;26.82;34.37;101226.91;5080540;28;20067;-69
2021/06/05 09:51:03;;;;;;;4.47;3.38;;;;;;;26.92;33.74;101218.53;5082866;28;20047;-70
2021/06/05 09:53:38;;;;;;;5.53;3.10;;;;;;;26.97;33.80;101206.19;5079405;28;20044;-69
2021/06/05 09:56:11;;;;;;;7.80;2.80;;;;;;;26.73;34.47;101209.91;5069661;28;20052;-69
2021/06/05 09:58:44;;;;;;;6.10;3.38;;;;;;;26.61;34.99;101207.84;5085958;28;20601;-70
2021/06/05 10:01:24;;;;;;;4.00;2.92;;;;;;;26.80;34.04;101212.75;5067704;28;20044;-70
2021/06/05 10:03:56;;;;;;;5.78;2.85;;;;;;;26.82;33.51;101213.41;5077173;28;20076;-72
2021/06/05 10:06:44;;;;;;;7.70;3.15;;;;;;;26.86;33.88;101206.59;5084730;28;20048;-69
2021/06/05 10:09:26;;;;;;;4.35;3.33;;;;;;;26.99;33.35;101211.38;5078295;28;20052;-70
2021/06/05 10:12:00;;;;;;;7.13;3.45;;;;;;;27.20;33.37;101202.59;5080262;28;20131;-70
2021/06/05 10:14:44;;;;;;;4.67;3.47;;;;;;;27.31;32.43;101198.59;5064514;28;20055;-71
2021/06/05 10:17:37;;;;;;;3.75;3.17;;;;;;;26.80;33.91;101207.34;5071420;28;20126;-70
2021/06/05 10:20:04;;;;;;;4.85;2.80;;;;;;;26.60;34.09;101198.91;5080440;28;20531;-69
2021/06/05 10:22:33;;;;;;;9.55;3.13;;;;;;;26.79;33.43;101196.72;5077688;28;20049;-71
2021/06/05 10:25:15;;;;;;;4.95;3.10;;;;;;;27.02;34.26;101192.94;5083726;28;20040;-69
2021/06/05 10:27:43;;;;;;;6.20;3.10;;;;;;;27.00;33.58;101192.28;5081371;28;20052;-69
2021/06/05 10:30:30;;;;;;;4.80;2.83;;;;;;;26.79;33.63;101200.25;5068624;28;20054;-70
2021/06/05 10:32:59;;;;;;;3.05;2.67;;;;;;;26.90;33.67;101190.88;5064199;28;20047;-70
2021/06/05 10:35:31;;;;;;;4.93;3.47;;;;;;;26.73;34.08;101193.72;5061919;28;20057;-70
2021/06/05 10:38:30;;;;;;;8.52;3.55;;;;;;;26.50;34.51;101190.22;5064601;28;20076;-69
2021/06/05 10:40:57;;;;;;;5.78;2.88;;;;;;;26.66;34.31;101186.53;5062498;28;20091;-70
2021/06/05 10:43:25;;;;;;;5.13;3.00;;;;;;;26.57;34.88;101183.06;5065490;28;20116;-68
2021/06/05 10:45:57;;;;;;;3.70;3.40;;;;;;;26.98;34.60;101183.53;5048464;28;20044;-71
2021/06/05 10:48:33;;;;;;;5.78;3.22;;;;;;;27.39;33.62;101175.00;5083976;28;20071;-69
2021/06/05 10:51:13;;;;;;;6.60;3.65;;;;;;;27.52;33.11;101179.75;5058746;28;20059;-71
2021/06/05 10:53:53;;;;;;;4.75;3.55;;;;;;;26.99;34.42;101171.69;5048984;28;20044;-70
2021/06/05 10:56:31;;;;;;;3.28;2.95;;;;;;;26.80;34.59;101166.00;5074596;28;20488;-70
2021/06/05 10:58:59;;;;;;;5.53;3.03;;;;;;;27.13;33.68;101167.34;5086240;28;20052;-69
2021/06/05 11:01:29;;;;;;;6.28;3.90;;;;;;;27.21;33.76;101159.16;5060717;28;20139;-70
2021/06/05 11:04:02;;;;;;;3.45;2.92;;;;;;;27.05;34.13;101170.09;5068374;28;20376;-70
2021/06/05 11:06:35;;;;;;;3.65;3.15;;;;;;;27.13;34.15;101171.94;5084856;28;20132;-71
2021/06/05 11:09:31;;;;;;;5.00;3.17;;;;;;;27.10;33.66;101181.22;5082429;28;20068;-71
2021/06/05 11:12:14;;;;;;;4.13;3.08;;;;;;;26.95;34.19;101161.44;5076721;28;20482;-70
2021/06/05 11:14:43;;;;;;;6.93;3.72;;;;;;;27.07;33.59;101167.25;5080377;28;20515;-70
2021/06/05 11:17:37;;;;;;;4.78;3.75;;;;;;;27.04;33.96;101156.78;5080640;28;20090;-70
2021/06/05 11:20:08;;;;;;;7.25;3.00;;;;;;;27.07;33.36;101156.44;5077146;28;20044;-70
2021/06/05 11:22:47;;;;;;;5.05;3.25;;;;;;;27.07;34.35;101154.56;5079999;28;20090;-70
2021/06/05 11:25:14;;;;;;;3.72;3.22;;;;;;;27.15;33.84;101154.47;5085329;28;20151;-70
2021/06/05 11:27:41;;;;;;;3.03;2.70;;;;;;;27.18;34.01;101154.13;5076189;28;20425;-71
2021/06/05 11:30:20;;;;;;;5.20;2.95;;;;;;;26.98;34.54;101144.88;5079618;28;20051;-71
2021/06/05 11:33:07;;;;;;;8.95;3.00;;;;;;;27.01;34.13;101149.88;5082548;28;20635;-70
2021/06/05 11:35:45;;;;;;;3.85;3.05;;;;;;;26.69;34.52;101145.66;5067536;28;20055;-70
2021/06/05 11:38:18;;;;;;;5.30;3.10;;;;;;;26.91;34.29;101133.94;5083786;28;20048;-70
2021/06/05 11:40:56;;;;;;;7.40;3.67;;;;;;;26.95;34.16;101131.72;5078791;28;20299;-70